createdAt,value
2022-11-06T00:01:57.918Z,5.46
2022-11-06T00:06:26.936Z,5.42
2022-11-06T00:10:34.310Z,5.36
2022-11-06T00:14:42.222Z,5.29
2022-11-06T00:18:49.968Z,5.27
2022-11-06T00:22:57.645Z,5.29
2022-11-06T00:27:05.989Z,5.31
2022-11-06T00:31:15.208Z,5.28
2022-11-06T00:35:23.153Z,5.21
2022-11-06T00:39:30.689Z,5.15
2022-11-06T00:43:39.076Z,5.09
2022-11-06T00:47:47.182Z,5.08
2022-11-06T00:51:55.199Z,5.09
2022-11-06T00:56:09.489Z,5.10
2022-11-06T01:00:20.636Z,5.07
2022-11-06T01:04:28.698Z,5.01
2022-11-06T01:08:36.219Z,4.96
2022-11-06T01:12:44.404Z,4.95
2022-11-06T01:16:53.148Z,4.97
2022-11-06T01:21:00.741Z,5.01
2022-11-06T01:25:10.633Z,4.98
2022-11-06T01:29:20.423Z,4.94
2022-11-06T01:33:28.443Z,4.89
2022-11-06T01:37:36.619Z,4.86
2022-11-06T01:41:46.013Z,4.88
2022-11-06T01:45:55.022Z,4.90
2022-11-06T01:50:08.792Z,4.89
2022-11-06T01:54:19.310Z,4.87
2022-11-06T01:58:29.873Z,4.81
2022-11-06T02:02:37.989Z,4.78
2022-11-06T02:06:47.171Z,4.81
2022-11-06T02:10:56.020Z,4.82
2022-11-06T02:15:08.691Z,4.75
2022-11-06T02:19:32.118Z,4.70
2022-11-06T02:23:56.378Z,4.67
2022-11-06T02:28:08.547Z,4.67
2022-11-06T02:32:23.304Z,4.69
2022-11-06T02:36:34.721Z,4.73
2022-11-06T02:40:45.569Z,4.74
2022-11-06T02:44:55.258Z,4.72
2022-11-06T02:49:08.571Z,4.66
2022-11-06T02:53:19.955Z,4.64
2022-11-06T02:57:30.067Z,4.67
2022-11-06T03:01:41.245Z,4.72
2022-11-06T03:05:53.831Z,4.73
2022-11-06T03:10:02.633Z,4.69
2022-11-06T03:14:15.171Z,4.62
2022-11-06T03:18:29.885Z,4.52
2022-11-06T03:22:45.109Z,4.45
2022-11-06T03:26:54.711Z,4.44
2022-11-06T03:31:07.353Z,4.46
2022-11-06T03:35:19.871Z,4.48
2022-11-06T03:39:31.276Z,4.49
2022-11-06T03:43:40.391Z,4.48
2022-11-06T03:47:50.237Z,4.44
2022-11-06T03:52:01.424Z,4.45
2022-11-06T03:56:13.840Z,4.45
2022-11-06T04:00:23.059Z,4.45
2022-11-06T04:04:34.026Z,4.43
2022-11-06T04:08:59.339Z,4.41
2022-11-06T04:13:24.336Z,4.35
2022-11-06T04:17:33.382Z,4.32
2022-11-06T04:21:49.716Z,4.36
2022-11-06T04:26:23.486Z,4.39
2022-11-06T04:30:34.184Z,4.39
2022-11-06T04:34:45.802Z,4.38
2022-11-06T04:38:59.578Z,4.33
2022-11-06T04:43:10.139Z,4.25
2022-11-06T04:47:20.185Z,4.23
2022-11-06T04:51:32.375Z,4.28
2022-11-06T04:55:52.442Z,4.31
2022-11-06T05:00:00.351Z,4.31
2022-11-06T05:04:08.443Z,4.26
2022-11-06T05:08:18.726Z,4.21
2022-11-06T05:12:26.660Z,4.21
2022-11-06T05:16:34.639Z,4.22
2022-11-06T05:20:41.894Z,4.17
2022-11-06T05:24:50.615Z,4.09
2022-11-06T05:28:58.338Z,4.00
2022-11-06T05:33:06.233Z,3.90
2022-11-06T05:37:13.930Z,3.79
2022-11-06T05:41:22.362Z,3.79
2022-11-06T05:45:30.493Z,3.84
2022-11-06T05:49:37.950Z,3.89
2022-11-06T05:53:45.807Z,3.78
2022-11-06T05:57:53.545Z,3.66
2022-11-06T06:02:01.482Z,3.58
2022-11-06T06:06:10.555Z,3.53
2022-11-06T06:10:18.067Z,3.52
2022-11-06T06:14:25.815Z,3.58
2022-11-06T06:18:33.717Z,3.65
2022-11-06T06:22:41.407Z,3.68
2022-11-06T06:26:49.984Z,3.66
2022-11-06T06:31:01.485Z,3.65
2022-11-06T06:35:11.026Z,3.64
2022-11-06T06:39:19.892Z,3.71
2022-11-06T06:43:27.548Z,3.78
2022-11-06T06:47:35.100Z,3.84
2022-11-06T06:51:43.012Z,3.86
2022-11-06T06:55:50.363Z,3.82
2022-11-06T06:59:57.558Z,3.77
2022-11-06T07:04:05.573Z,3.77
2022-11-06T07:08:13.585Z,3.84
2022-11-06T07:12:21.495Z,3.89
2022-11-06T07:16:30.299Z,3.94
2022-11-06T07:20:40.002Z,3.97
2022-11-06T07:24:47.357Z,3.99
2022-11-06T07:28:54.886Z,4.06
2022-11-06T07:33:04.999Z,4.15
2022-11-06T07:37:12.849Z,4.22
2022-11-06T07:41:20.696Z,4.27
2022-11-06T07:45:29.481Z,4.32
2022-11-06T07:49:37.875Z,4.36
2022-11-06T07:53:45.569Z,4.43
2022-11-06T07:57:53.137Z,4.55
2022-11-06T08:02:00.902Z,4.66
2022-11-06T08:06:09.663Z,4.75
2022-11-06T08:10:18.383Z,4.87
2022-11-06T08:14:25.914Z,5.03
2022-11-06T08:18:33.970Z,5.21
2022-11-06T08:22:41.645Z,5.37
2022-11-06T08:26:48.964Z,5.50
2022-11-06T08:30:56.798Z,5.60
2022-11-06T08:35:04.152Z,5.67
2022-11-06T08:39:11.947Z,5.78
2022-11-06T08:43:19.609Z,5.94
2022-11-06T08:47:27.078Z,6.10
2022-11-06T08:51:34.969Z,6.23
2022-11-06T08:55:42.546Z,6.33
2022-11-06T08:59:50.382Z,6.41
2022-11-06T09:03:57.838Z,6.52
2022-11-06T09:08:06.539Z,6.66
2022-11-06T09:12:14.651Z,6.81
2022-11-06T09:16:22.947Z,6.93
2022-11-06T09:20:30.588Z,7.05
2022-11-06T09:25:02.088Z,7.20
2022-11-06T09:29:07.024Z,7.40
2022-11-06T09:33:16.435Z,7.60
2022-11-06T09:37:25.781Z,7.81
2022-11-06T09:41:38.220Z,7.98
2022-11-06T09:45:48.859Z,8.14
2022-11-06T09:50:00.860Z,8.29
2022-11-06T09:54:12.411Z,8.49
2022-11-06T09:58:24.150Z,8.63
2022-11-06T10:02:35.604Z,8.72
2022-11-06T10:06:43.169Z,8.82
2022-11-06T10:10:58.785Z,8.91
2022-11-06T10:15:18.363Z,8.99
2022-11-06T10:19:32.258Z,9.11
2022-11-06T10:23:47.127Z,9.25
2022-11-06T10:28:03.202Z,9.36
2022-11-06T10:32:43.808Z,9.47
2022-11-06T10:36:54.558Z,9.56
2022-11-06T10:41:03.350Z,9.63
2022-11-06T10:45:14.966Z,9.69
2022-11-06T10:49:30.330Z,9.77
2022-11-06T10:53:42.333Z,9.89
2022-11-06T10:57:54.856Z,10.02
2022-11-06T11:02:03.787Z,10.13
2022-11-06T11:06:13.946Z,10.23
2022-11-06T11:10:33.391Z,10.32
2022-11-06T11:14:41.367Z,10.37
2022-11-06T11:18:50.289Z,10.41
2022-11-06T11:23:09.209Z,10.47
2022-11-06T11:27:18.567Z,10.52
2022-11-06T11:31:31.386Z,10.59
2022-11-06T11:35:39.522Z,10.67
2022-11-06T11:39:48.065Z,10.76
2022-11-06T11:44:11.027Z,10.88
2022-11-06T11:48:18.844Z,11.03
2022-11-06T11:52:26.519Z,11.14
2022-11-06T11:57:02.798Z,11.23
2022-11-06T12:01:03.594Z,11.30
2022-11-06T12:05:14.639Z,11.34
2022-11-06T12:09:23.218Z,11.38
2022-11-06T12:13:31.562Z,11.42
2022-11-06T12:17:42.555Z,11.48
2022-11-06T12:21:55.477Z,11.54
2022-11-06T12:26:08.031Z,11.60
2022-11-06T12:30:17.905Z,11.69
2022-11-06T12:34:30.079Z,11.78
2022-11-06T12:38:43.531Z,11.86
2022-11-06T12:42:59.351Z,11.92
2022-11-06T12:47:13.161Z,12.00
2022-11-06T12:51:27.163Z,12.05
2022-11-06T12:55:36.997Z,12.09
2022-11-06T12:59:52.623Z,12.12
2022-11-06T13:04:21.693Z,12.16
2022-11-06T13:08:37.348Z,12.22
2022-11-06T13:12:48.600Z,12.23
2022-11-06T13:17:01.819Z,12.23
2022-11-06T13:21:12.629Z,12.24
2022-11-06T13:25:24.650Z,12.27
2022-11-06T13:29:32.941Z,12.29
2022-11-06T13:33:43.680Z,12.39
2022-11-06T13:37:53.016Z,12.46
2022-11-06T13:42:02.484Z,12.42
2022-11-06T13:46:16.618Z,12.36
2022-11-06T13:50:32.030Z,12.29
2022-11-06T13:54:59.512Z,12.22
2022-11-06T13:59:27.431Z,12.22
2022-11-06T14:04:20.435Z,12.24
2022-11-06T14:08:31.046Z,12.24
2022-11-06T14:12:38.726Z,12.26
2022-11-06T14:16:48.224Z,12.22
2022-11-06T14:21:44.217Z,12.17
2022-11-06T14:26:03.302Z,12.07
2022-11-06T14:31:10.334Z,11.97
2022-11-06T14:35:51.955Z,11.84
2022-11-06T14:40:12.394Z,11.70
2022-11-06T14:44:44.463Z,11.53
2022-11-06T14:48:53.761Z,11.36
2022-11-06T14:53:03.898Z,11.21
2022-11-06T14:57:14.727Z,11.07
2022-11-06T15:01:29.888Z,10.96
2022-11-06T15:05:42.223Z,10.80
2022-11-06T15:09:51.136Z,10.71
2022-11-06T15:14:04.564Z,10.67
2022-11-06T15:18:19.693Z,10.56
2022-11-06T15:22:37.062Z,10.45
2022-11-06T15:26:48.963Z,10.33
2022-11-06T15:31:02.549Z,10.19
2022-11-06T15:35:17.004Z,10.06
2022-11-06T15:39:31.278Z,9.93
2022-11-06T15:43:40.049Z,9.80
2022-11-06T15:47:58.571Z,9.72
2022-11-06T15:52:09.915Z,9.66
2022-11-06T15:56:19.122Z,9.59
2022-11-06T16:00:27.449Z,9.52
2022-11-06T16:04:35.420Z,9.42
2022-11-06T16:08:44.203Z,9.28
2022-11-06T16:12:53.855Z,9.17
2022-11-06T16:17:12.593Z,9.08
2022-11-06T16:21:22.643Z,9.03
2022-11-06T16:25:30.131Z,8.99
2022-11-06T16:29:38.671Z,8.95
2022-11-06T16:33:56.515Z,8.86
2022-11-06T16:38:41.575Z,8.77
2022-11-06T16:43:03.850Z,8.69
2022-11-06T16:47:17.638Z,8.66
2022-11-06T16:51:34.748Z,8.60
2022-11-06T16:55:42.959Z,8.52
2022-11-06T17:00:00.330Z,8.43
2022-11-06T17:04:11.261Z,8.40
2022-11-06T17:08:28.301Z,8.36
2022-11-06T17:12:36.064Z,8.29
2022-11-06T17:16:51.360Z,8.20
2022-11-06T17:21:01.733Z,8.10
2022-11-06T17:25:13.211Z,8.06
2022-11-06T17:29:22.375Z,8.00
2022-11-06T17:33:31.067Z,7.93
2022-11-06T17:37:39.030Z,7.84
2022-11-06T17:41:46.608Z,7.75
2022-11-06T17:45:53.999Z,7.70
2022-11-06T17:50:04.154Z,7.67
2022-11-06T17:54:12.644Z,7.61
2022-11-06T17:58:20.037Z,7.54
2022-11-06T18:02:48.079Z,7.47
2022-11-06T18:06:56.955Z,7.41
2022-11-06T18:11:04.406Z,7.40
2022-11-06T18:15:13.212Z,7.38
2022-11-06T18:19:22.922Z,7.31
2022-11-06T18:23:30.843Z,7.24
2022-11-06T18:27:39.207Z,7.18
2022-11-06T18:31:47.073Z,7.15
2022-11-06T18:35:55.244Z,7.11
2022-11-06T18:40:06.376Z,7.02
2022-11-06T18:44:18.405Z,6.92
2022-11-06T18:48:25.918Z,6.87
2022-11-06T18:52:56.358Z,6.84
2022-11-06T18:57:03.504Z,6.77
2022-11-06T19:01:13.427Z,6.71
2022-11-06T19:05:21.180Z,6.67
2022-11-06T19:09:31.086Z,6.65
2022-11-06T19:13:44.804Z,6.65
2022-11-06T19:17:56.698Z,6.64
2022-11-06T19:22:04.545Z,6.59
2022-11-06T19:26:30.745Z,6.51
2022-11-06T19:30:40.148Z,6.46
2022-11-06T19:34:48.124Z,6.38
2022-11-06T19:38:57.709Z,6.32
2022-11-06T19:43:07.405Z,6.25
2022-11-06T19:47:16.591Z,6.18
2022-11-06T19:51:25.050Z,6.11
2022-11-06T19:55:32.582Z,6.04
2022-11-06T19:59:40.242Z,6.00
2022-11-06T20:03:47.870Z,5.95
2022-11-06T20:07:55.654Z,5.92
2022-11-06T20:12:03.639Z,5.84
2022-11-06T20:16:13.819Z,5.73
2022-11-06T20:20:22.277Z,5.67
2022-11-06T20:24:30.135Z,5.64
2022-11-06T20:28:37.898Z,5.70
2022-11-06T20:32:45.869Z,5.75
2022-11-06T20:36:54.358Z,5.72
2022-11-06T20:41:02.695Z,5.70
2022-11-06T20:45:12.864Z,5.64
2022-11-06T20:49:21.698Z,5.56
2022-11-06T20:53:29.681Z,5.50
2022-11-06T20:57:37.289Z,5.47
2022-11-06T21:01:45.064Z,5.42
2022-11-06T21:05:52.910Z,5.35
2022-11-06T21:10:02.842Z,5.31
2022-11-06T21:14:15.383Z,5.27
2022-11-06T21:18:27.124Z,5.27
2022-11-06T21:22:35.504Z,5.30
2022-11-06T21:26:43.912Z,5.32
2022-11-06T21:30:51.586Z,5.31
2022-11-06T21:35:01.660Z,5.29
2022-11-06T21:39:12.580Z,5.25
2022-11-06T21:43:20.573Z,5.18
2022-11-06T21:47:30.989Z,5.14
2022-11-06T21:51:40.273Z,5.10
2022-11-06T21:55:59.866Z,4.98
2022-11-06T22:00:14.074Z,4.92
2022-11-06T22:04:23.804Z,4.87
2022-11-06T22:08:38.744Z,4.81
2022-11-06T22:12:46.721Z,4.78
2022-11-06T22:16:56.204Z,4.73
2022-11-06T22:21:13.023Z,4.71
2022-11-06T22:25:21.769Z,4.68
2022-11-06T22:29:30.181Z,4.64
2022-11-06T22:33:39.502Z,4.53
2022-11-06T22:37:48.400Z,4.42
2022-11-06T22:41:58.689Z,4.35
2022-11-06T22:46:09.275Z,4.31
2022-11-06T22:50:17.109Z,4.26
2022-11-06T22:54:24.460Z,4.21
2022-11-06T22:58:32.088Z,4.19
2022-11-06T23:02:39.802Z,4.17
2022-11-06T23:06:48.206Z,4.15
2022-11-06T23:10:57.176Z,4.17
2022-11-06T23:15:06.537Z,4.13
2022-11-06T23:19:16.172Z,4.09
2022-11-06T23:23:23.852Z,4.01
2022-11-06T23:27:31.521Z,3.92
2022-11-06T23:31:41.181Z,3.92
2022-11-06T23:35:49.173Z,3.98
2022-11-06T23:39:56.778Z,4.05
2022-11-06T23:44:25.890Z,4.07
2022-11-06T23:48:34.460Z,4.09
2022-11-06T23:52:42.862Z,4.08
2022-11-06T23:56:50.992Z,4.05
